Borisov, Belarus
Current Conditions -  °F | °C
As of 12:00 PM on Saturday 01 Nov 2014 (Local Time) from UMMS Reporting Station
Clear Clear  
Wind Chill: 34°   Ceiling: Unl
Heat Index: 37°   Visibility: 6mi
Dew Point: 32°   Wind: 4mph
Humidity: 81%   Direction: 350°N
Pressure: 30.24"   Gusts: NA
Location:  54.22°N, 28.51°E
Report Text: UMMS 011000Z 35002MPS CAVOK 03/M00 Q1024 R31/CLRD// NOSIG
Loading
Personal Weather Stations






























Interactive Weather Map
Tropical Storm Tracking
New forecast layout! Learn more

10-Day Weather Forecast

Advertisements
Track Severe Weather on mobile